Time,TemperatureF,DewpointF,PressureIn,WindDirection,WindDirectionDegrees,WindSpeedMPH,WindSpeedGustMPH,Humidity,HourlyPrecipIn,Conditions,Clouds,dailyrainin,SoftwareType,DateUTC
2013-01-08 00:00:00,20.0,-23.0,-100.00,NNE,21,7.0,11.0,13,-99.99,,,-99.99,,2013-01-08 07:00:00,
2013-01-08 00:42:00,20.0,-23.0,-100.00,NNE,21,7.0,11.0,13,-99.99,,,-99.99,,2013-01-08 07:42:00,
2013-01-08 00:52:00,20.0,-23.0,-100.00,NNE,21,7.0,11.0,13,-99.99,,,-99.99,,2013-01-08 07:52:00,
2013-01-08 01:00:00,20.0,-26.0,-100.00,North,3,6.0,10.0,11,-99.99,,,-99.99,,2013-01-08 08:00:00,
2013-01-08 01:42:00,20.0,-26.0,-100.00,North,3,6.0,10.0,11,-99.99,,,-99.99,,2013-01-08 08:42:00,
2013-01-08 01:53:00,20.0,-26.0,-100.00,North,3,6.0,10.0,11,-99.99,,,-99.99,,2013-01-08 08:53:00,
2013-01-08 02:00:00,20.0,-25.0,-100.00,North,356,12.0,21.0,11,-99.99,,,-99.99,,2013-01-08 09:00:00,
2013-01-08 02:42:00,20.0,-25.0,-100.00,North,356,12.0,21.0,11,-99.99,,,-99.99,,2013-01-08 09:42:00,
2013-01-08 02:52:00,20.0,-25.0,-100.00,North,356,12.0,21.0,11,-99.99,,,-99.99,,2013-01-08 09:52:00,
2013-01-08 03:00:00,19.0,-21.0,-100.00,NNE,14,9.0,13.0,14,-99.99,,,-99.99,,2013-01-08 10:00:00,
2013-01-08 03:42:00,19.0,-21.0,-100.00,NNE,14,9.0,13.0,14,-99.99,,,-99.99,,2013-01-08 10:42:00,
2013-01-08 03:52:00,19.0,-21.0,-100.00,NNE,14,9.0,13.0,14,-99.99,,,-99.99,,2013-01-08 10:52:00,
2013-01-08 04:00:00,19.0,-20.0,-100.00,North,8,9.0,15.0,15,-99.99,,,-99.99,,2013-01-08 11:00:00,
2013-01-08 04:42:00,19.0,-20.0,-100.00,North,8,9.0,15.0,15,-99.99,,,-99.99,,2013-01-08 11:42:00,
2013-01-08 04:53:00,19.0,-20.0,-100.00,North,8,9.0,15.0,15,-99.99,,,-99.99,,2013-01-08 11:53:00,
2013-01-08 05:00:00,17.0,-20.0,-100.00,North,11,12.0,17.0,17,-99.99,,,-99.99,,2013-01-08 12:00:00,
2013-01-08 05:43:00,17.0,-20.0,-100.00,North,11,12.0,17.0,17,-99.99,,,-99.99,,2013-01-08 12:43:00,
2013-01-08 05:53:00,17.0,-20.0,-100.00,North,11,12.0,17.0,17,-99.99,,,-99.99,,2013-01-08 12:53:00,
2013-01-08 06:00:00,16.0,-16.0,-100.00,North,7,12.0,19.0,22,-99.99,,,-99.99,,2013-01-08 13:00:00,
2013-01-08 06:43:00,16.0,-16.0,-100.00,North,7,12.0,19.0,22,-99.99,,,-99.99,,2013-01-08 13:43:00,
2013-01-08 06:53:00,16.0,-16.0,-100.00,North,7,12.0,19.0,22,-99.99,,,-99.99,,2013-01-08 13:53:00,
2013-01-08 07:00:00,19.0,6.0,-100.00,North,354,11.0,22.0,56,-99.99,,,-99.99,,2013-01-08 14:00:00,
2013-01-08 07:43:00,19.0,6.0,-100.00,North,354,11.0,22.0,56,-99.99,,,-99.99,,2013-01-08 14:43:00,
2013-01-08 07:53:00,19.0,6.0,-100.00,North,354,11.0,22.0,56,-99.99,,,-99.99,,2013-01-08 14:53:00,
2013-01-08 08:00:00,18.0,9.0,-100.00,North,353,18.0,25.0,66,-99.99,,,-99.99,,2013-01-08 15:00:00,
2013-01-08 08:43:00,18.0,9.0,-100.00,North,353,18.0,25.0,66,-99.99,,,-99.99,,2013-01-08 15:43:00,
2013-01-08 08:53:00,18.0,9.0,-100.00,North,353,18.0,25.0,66,-99.99,,,-99.99,,2013-01-08 15:53:00,
2013-01-08 09:00:00,18.0,11.0,-100.00,North,354,20.0,26.0,73,-99.99,,,-99.99,,2013-01-08 16:00:00,
2013-01-08 09:43:00,18.0,11.0,-100.00,North,354,20.0,26.0,73,-99.99,,,-99.99,,2013-01-08 16:43:00,
2013-01-08 09:53:00,18.0,11.0,-100.00,North,354,20.0,26.0,73,-99.99,,,-99.99,,2013-01-08 16:53:00,
2013-01-08 10:00:00,19.0,11.0,-100.00,North,356,16.0,22.0,73,-99.99,,,-99.99,,2013-01-08 17:00:00,
2013-01-08 10:43:00,19.0,11.0,-100.00,North,356,16.0,22.0,73,-99.99,,,-99.99,,2013-01-08 17:43:00,
2013-01-08 10:53:00,19.0,11.0,-100.00,North,356,16.0,22.0,73,-99.99,,,-99.99,,2013-01-08 17:53:00,
2013-01-08 12:00:00,18.0,10.0,-100.00,North,360,20.0,23.0,71,-99.99,,,-99.99,,2013-01-08 19:00:00,
2013-01-08 12:43:00,18.0,10.0,-100.00,North,360,20.0,23.0,71,-99.99,,,-99.99,,2013-01-08 19:43:00,
2013-01-08 12:53:00,18.0,10.0,-100.00,North,360,20.0,23.0,71,-99.99,,,-99.99,,2013-01-08 19:53:00,
2013-01-08 13:00:00,19.0,9.0,-100.00,North,1,17.0,22.0,65,-99.99,,,-99.99,,2013-01-08 20:00:00,
2013-01-08 13:43:00,19.0,9.0,-100.00,North,1,17.0,22.0,65,-99.99,,,-99.99,,2013-01-08 20:43:00,
2013-01-08 13:53:00,19.0,9.0,-100.00,North,1,17.0,22.0,65,-99.99,,,-99.99,,2013-01-08 20:53:00,
2013-01-08 14:00:00,21.0,8.0,-100.00,North,2,13.0,16.0,55,-99.99,,,-99.99,,2013-01-08 21:00:00,
2013-01-08 14:43:00,21.0,8.0,-100.00,North,2,13.0,16.0,55,-99.99,,,-99.99,,2013-01-08 21:43:00,
2013-01-08 14:53:00,21.0,8.0,-100.00,North,2,13.0,16.0,55,-99.99,,,-99.99,,2013-01-08 21:53:00,
2013-01-08 15:00:00,23.0,8.0,-100.00,North,354,14.0,21.0,52,-99.99,,,-99.99,,2013-01-08 22:00:00,
2013-01-08 15:43:00,23.0,8.0,-100.00,North,354,14.0,21.0,52,-99.99,,,-99.99,,2013-01-08 22:43:00,
2013-01-08 15:53:00,23.0,8.0,-100.00,North,354,14.0,21.0,52,-99.99,,,-99.99,,2013-01-08 22:53:00,
2013-01-08 16:00:00,23.0,8.0,-100.00,North,356,12.0,18.0,52,-99.99,,,-99.99,,2013-01-08 23:00:00,
2013-01-08 16:43:00,23.0,8.0,-100.00,North,356,12.0,18.0,52,-99.99,,,-99.99,,2013-01-08 23:43:00,
2013-01-08 16:53:00,23.0,8.0,-100.00,North,356,12.0,18.0,52,-99.99,,,-99.99,,2013-01-08 23:53:00,
2013-01-08 17:00:00,23.0,8.0,-100.00,North,360,10.0,16.0,52,-99.99,,,-99.99,,2013-01-09 00:00:00,
2013-01-08 17:43:00,23.0,8.0,-100.00,North,360,10.0,16.0,52,-99.99,,,-99.99,,2013-01-09 00:43:00,
2013-01-08 17:53:00,23.0,8.0,-100.00,North,360,10.0,16.0,52,-99.99,,,-99.99,,2013-01-09 00:53:00,
2013-01-08 18:00:00,21.0,7.0,-100.00,NNE,13,8.0,13.0,55,-99.99,,,-99.99,,2013-01-09 01:00:00,
2013-01-08 18:42:00,21.0,7.0,-100.00,NNE,13,8.0,13.0,55,-99.99,,,-99.99,,2013-01-09 01:42:00,
2013-01-08 18:52:00,21.0,7.0,-100.00,NNE,13,8.0,13.0,55,-99.99,,,-99.99,,2013-01-09 01:52:00,
2013-01-08 19:00:00,22.0,3.0,-100.00,NE,56,4.0,10.0,42,-99.99,,,-99.99,,2013-01-09 02:00:00,
2013-01-08 19:43:00,22.0,3.0,-100.00,NE,56,4.0,10.0,42,-99.99,,,-99.99,,2013-01-09 02:43:00,
2013-01-08 19:53:00,22.0,3.0,-100.00,NE,56,4.0,10.0,42,-99.99,,,-99.99,,2013-01-09 02:53:00,
2013-01-08 20:00:00,23.0,-2.0,-100.00,East,85,4.0,11.0,32,-99.99,,,-99.99,,2013-01-09 03:00:00,
2013-01-08 20:43:00,23.0,-2.0,-100.00,East,85,4.0,11.0,32,-99.99,,,-99.99,,2013-01-09 03:43:00,
2013-01-08 20:52:00,23.0,-2.0,-100.00,East,85,4.0,11.0,32,-99.99,,,-99.99,,2013-01-09 03:52:00,
2013-01-08 21:00:00,23.0,-4.0,-100.00,ENE,58,4.0,9.0,29,-99.99,,,-99.99,,2013-01-09 04:00:00,
2013-01-08 21:43:00,23.0,-4.0,-100.00,ENE,58,4.0,9.0,29,-99.99,,,-99.99,,2013-01-09 04:43:00,
2013-01-08 21:52:00,23.0,-4.0,-100.00,ENE,58,4.0,9.0,29,-99.99,,,-99.99,,2013-01-09 04:52:00,
2013-01-08 22:00:00,24.0,-4.0,-100.00,NNE,13,12.0,16.0,28,-99.99,,,-99.99,,2013-01-09 05:00:00,
2013-01-08 22:43:00,24.0,-4.0,-100.00,NNE,13,12.0,16.0,28,-99.99,,,-99.99,,2013-01-09 05:43:00,
2013-01-08 22:52:00,24.0,-4.0,-100.00,NNE,13,12.0,16.0,28,-99.99,,,-99.99,,2013-01-09 05:52:00,
2013-01-08 23:00:00,23.0,-4.0,-100.00,North,8,10.0,13.0,31,-99.99,,,-99.99,,2013-01-09 06:00:00,
2013-01-08 23:42:00,23.0,-4.0,-100.00,North,8,10.0,13.0,31,-99.99,,,-99.99,,2013-01-09 06:42:00,
2013-01-08 23:52:00,23.0,-4.0,-100.00,North,8,10.0,13.0,31,-99.99,,,-99.99,,2013-01-09 06:52:00,